sensor_id;sensor_type;location;lat;lon;timestamp;temperature;humidity
24560;DHT22;12727;49.934;8.656;2024-02-23T00:01:44;8.60;99.90
24560;DHT22;12727;49.934;8.656;2024-02-23T00:04:09;8.60;99.90
24560;DHT22;12727;49.934;8.656;2024-02-23T00:06:35;8.60;99.90
24560;DHT22;12727;49.934;8.656;2024-02-23T00:09:01;8.60;99.90
24560;DHT22;12727;49.934;8.656;2024-02-23T00:11:26;8.60;99.90
24560;DHT22;12727;49.934;8.656;2024-02-23T00:13:53;8.60;99.90
24560;DHT22;12727;49.934;8.656;2024-02-23T00:16:19;8.60;99.90
24560;DHT22;12727;49.934;8.656;2024-02-23T00:18:45;8.50;99.90
24560;DHT22;12727;49.934;8.656;2024-02-23T00:21:10;8.40;99.90
24560;DHT22;12727;49.934;8.656;2024-02-23T00:23:36;8.30;99.90
24560;DHT22;12727;49.934;8.656;2024-02-23T00:26:02;8.30;99.90
24560;DHT22;12727;49.934;8.656;2024-02-23T00:28:27;8.30;99.90
24560;DHT22;12727;49.934;8.656;2024-02-23T00:30:53;8.30;99.90
24560;DHT22;12727;49.934;8.656;2024-02-23T00:33:18;8.30;99.90
24560;DHT22;12727;49.934;8.656;2024-02-23T00:35:44;8.30;99.90
24560;DHT22;12727;49.934;8.656;2024-02-23T00:38:10;8.20;99.90
24560;DHT22;12727;49.934;8.656;2024-02-23T00:40:35;8.10;99.90
24560;DHT22;12727;49.934;8.656;2024-02-23T00:43:01;8.10;99.90
24560;DHT22;12727;49.934;8.656;2024-02-23T00:45:28;8.00;99.90
24560;DHT22;12727;49.934;8.656;2024-02-23T00:47:54;7.90;99.90
24560;DHT22;12727;49.934;8.656;2024-02-23T00:50:19;7.90;99.90
24560;DHT22;12727;49.934;8.656;2024-02-23T00:52:45;7.80;99.90
24560;DHT22;12727;49.934;8.656;2024-02-23T00:55:10;7.80;99.90
24560;DHT22;12727;49.934;8.656;2024-02-23T00:57:37;7.70;99.90
24560;DHT22;12727;49.934;8.656;2024-02-23T01:00:04;7.60;99.90
24560;DHT22;12727;49.934;8.656;2024-02-23T01:02:31;7.60;99.90
24560;DHT22;12727;49.934;8.656;2024-02-23T01:04:58;7.50;99.90
24560;DHT22;12727;49.934;8.656;2024-02-23T01:07:24;7.40;99.90
24560;DHT22;12727;49.934;8.656;2024-02-23T01:09:50;7.40;99.90
24560;DHT22;12727;49.934;8.656;2024-02-23T01:12:15;7.50;99.90
24560;DHT22;12727;49.934;8.656;2024-02-23T01:14:41;7.50;99.90
24560;DHT22;12727;49.934;8.656;2024-02-23T01:17:07;7.50;99.90
24560;DHT22;12727;49.934;8.656;2024-02-23T01:19:32;7.50;99.90
24560;DHT22;12727;49.934;8.656;2024-02-23T01:21:58;7.50;99.90
24560;DHT22;12727;49.934;8.656;2024-02-23T01:24:28;7.40;99.90
24560;DHT22;12727;49.934;8.656;2024-02-23T01:26:55;7.40;99.90
24560;DHT22;12727;49.934;8.656;2024-02-23T01:29:22;7.40;99.90
24560;DHT22;12727;49.934;8.656;2024-02-23T01:31:50;7.30;99.90
24560;DHT22;12727;49.934;8.656;2024-02-23T01:34:16;7.10;99.90
24560;DHT22;12727;49.934;8.656;2024-02-23T01:36:42;7.10;99.90
24560;DHT22;12727;49.934;8.656;2024-02-23T01:39:08;7.00;99.90
24560;DHT22;12727;49.934;8.656;2024-02-23T01:41:33;7.00;99.90
24560;DHT22;12727;49.934;8.656;2024-02-23T01:43:59;7.00;99.90
24560;DHT22;12727;49.934;8.656;2024-02-23T01:46:24;6.90;99.90
24560;DHT22;12727;49.934;8.656;2024-02-23T01:48:50;6.90;99.90
24560;DHT22;12727;49.934;8.656;2024-02-23T01:51:16;6.90;99.90
24560;DHT22;12727;49.934;8.656;2024-02-23T01:53:42;6.90;99.90
24560;DHT22;12727;49.934;8.656;2024-02-23T01:56:08;6.80;99.90
24560;DHT22;12727;49.934;8.656;2024-02-23T01:58:35;6.70;99.90
24560;DHT22;12727;49.934;8.656;2024-02-23T02:01:02;6.60;99.90
24560;DHT22;12727;49.934;8.656;2024-02-23T02:03:28;6.60;99.90
24560;DHT22;12727;49.934;8.656;2024-02-23T02:05:55;6.70;99.90
24560;DHT22;12727;49.934;8.656;2024-02-23T02:08:25;6.70;99.90
24560;DHT22;12727;49.934;8.656;2024-02-23T02:10:50;6.80;99.90
24560;DHT22;12727;49.934;8.656;2024-02-23T02:13:16;6.90;99.90
24560;DHT22;12727;49.934;8.656;2024-02-23T02:15:41;6.90;99.90
24560;DHT22;12727;49.934;8.656;2024-02-23T02:18:09;6.90;99.90
24560;DHT22;12727;49.934;8.656;2024-02-23T02:20:36;6.90;99.90
24560;DHT22;12727;49.934;8.656;2024-02-23T02:23:02;6.80;99.90
24560;DHT22;12727;49.934;8.656;2024-02-23T02:25:28;6.80;99.90
24560;DHT22;12727;49.934;8.656;2024-02-23T02:27:54;6.70;99.90
24560;DHT22;12727;49.934;8.656;2024-02-23T02:30:19;6.70;99.90
24560;DHT22;12727;49.934;8.656;2024-02-23T02:32:45;6.50;99.90
24560;DHT22;12727;49.934;8.656;2024-02-23T02:35:11;6.40;99.90
24560;DHT22;12727;49.934;8.656;2024-02-23T02:37:38;6.40;99.90
24560;DHT22;12727;49.934;8.656;2024-02-23T02:40:04;6.40;99.90
24560;DHT22;12727;49.934;8.656;2024-02-23T02:42:30;6.40;99.90
24560;DHT22;12727;49.934;8.656;2024-02-23T02:44:56;6.30;99.90
24560;DHT22;12727;49.934;8.656;2024-02-23T02:47:21;6.30;99.90
24560;DHT22;12727;49.934;8.656;2024-02-23T02:49:48;6.30;99.90
24560;DHT22;12727;49.934;8.656;2024-02-23T02:52:14;6.20;99.90
24560;DHT22;12727;49.934;8.656;2024-02-23T02:54:39;6.10;99.90
24560;DHT22;12727;49.934;8.656;2024-02-23T02:57:05;6.00;99.90
24560;DHT22;12727;49.934;8.656;2024-02-23T02:59:39;6.00;99.90
24560;DHT22;12727;49.934;8.656;2024-02-23T03:02:05;6.00;99.90
24560;DHT22;12727;49.934;8.656;2024-02-23T03:04:30;6.10;99.90
24560;DHT22;12727;49.934;8.656;2024-02-23T03:06:56;6.10;99.90
24560;DHT22;12727;49.934;8.656;2024-02-23T03:09:21;6.20;99.90
24560;DHT22;12727;49.934;8.656;2024-02-23T03:11:47;6.30;99.90
24560;DHT22;12727;49.934;8.656;2024-02-23T03:14:13;6.30;99.90
24560;DHT22;12727;49.934;8.656;2024-02-23T03:16:38;6.30;99.90
24560;DHT22;12727;49.934;8.656;2024-02-23T03:19:04;6.40;99.90
24560;DHT22;12727;49.934;8.656;2024-02-23T03:21:30;6.30;99.90
24560;DHT22;12727;49.934;8.656;2024-02-23T03:23:56;6.20;99.90
24560;DHT22;12727;49.934;8.656;2024-02-23T03:26:21;6.20;99.90
24560;DHT22;12727;49.934;8.656;2024-02-23T03:28:47;6.10;99.90
24560;DHT22;12727;49.934;8.656;2024-02-23T03:31:14;6.10;99.90
24560;DHT22;12727;49.934;8.656;2024-02-23T03:33:39;6.10;99.90
24560;DHT22;12727;49.934;8.656;2024-02-23T03:36:05;6.20;99.90
24560;DHT22;12727;49.934;8.656;2024-02-23T03:38:31;6.20;99.90
24560;DHT22;12727;49.934;8.656;2024-02-23T03:40:59;6.10;99.90
24560;DHT22;12727;49.934;8.656;2024-02-23T03:43:24;6.10;99.90
24560;DHT22;12727;49.934;8.656;2024-02-23T03:45:50;6.00;99.90
24560;DHT22;12727;49.934;8.656;2024-02-23T03:48:15;5.90;99.90
24560;DHT22;12727;49.934;8.656;2024-02-23T03:50:41;5.80;99.90
24560;DHT22;12727;49.934;8.656;2024-02-23T03:53:07;5.80;99.90
24560;DHT22;12727;49.934;8.656;2024-02-23T03:55:32;5.70;99.90
24560;DHT22;12727;49.934;8.656;2024-02-23T03:57:58;5.60;99.90
24560;DHT22;12727;49.934;8.656;2024-02-23T04:00:23;5.60;99.90
24560;DHT22;12727;49.934;8.656;2024-02-23T04:02:49;5.60;99.90
24560;DHT22;12727;49.934;8.656;2024-02-23T04:05:15;5.60;99.90
24560;DHT22;12727;49.934;8.656;2024-02-23T04:07:40;5.50;99.90
24560;DHT22;12727;49.934;8.656;2024-02-23T04:10:06;5.50;99.90
24560;DHT22;12727;49.934;8.656;2024-02-23T04:12:32;5.50;99.90
24560;DHT22;12727;49.934;8.656;2024-02-23T04:14:58;5.40;99.90
24560;DHT22;12727;49.934;8.656;2024-02-23T04:17:23;5.30;99.90
24560;DHT22;12727;49.934;8.656;2024-02-23T04:19:49;5.30;99.90
24560;DHT22;12727;49.934;8.656;2024-02-23T04:22:14;5.30;99.90
24560;DHT22;12727;49.934;8.656;2024-02-23T04:24:41;5.30;99.90
24560;DHT22;12727;49.934;8.656;2024-02-23T04:27:08;5.30;99.90
24560;DHT22;12727;49.934;8.656;2024-02-23T04:29:34;5.30;99.90
24560;DHT22;12727;49.934;8.656;2024-02-23T04:32:00;5.20;99.90
24560;DHT22;12727;49.934;8.656;2024-02-23T04:34:29;5.20;99.90
24560;DHT22;12727;49.934;8.656;2024-02-23T04:36:55;5.20;99.90
24560;DHT22;12727;49.934;8.656;2024-02-23T04:39:20;5.20;99.90
24560;DHT22;12727;49.934;8.656;2024-02-23T04:41:47;5.10;99.90
24560;DHT22;12727;49.934;8.656;2024-02-23T04:44:12;5.10;99.90
24560;DHT22;12727;49.934;8.656;2024-02-23T04:46:38;5.20;99.90
24560;DHT22;12727;49.934;8.656;2024-02-23T04:49:03;5.10;99.90
24560;DHT22;12727;49.934;8.656;2024-02-23T04:51:29;5.10;99.90
24560;DHT22;12727;49.934;8.656;2024-02-23T04:53:54;5.10;99.90
24560;DHT22;12727;49.934;8.656;2024-02-23T04:56:20;5.00;99.90
24560;DHT22;12727;49.934;8.656;2024-02-23T04:58:46;4.90;99.90
24560;DHT22;12727;49.934;8.656;2024-02-23T05:01:12;4.90;99.90
24560;DHT22;12727;49.934;8.656;2024-02-23T05:03:38;4.80;99.90
24560;DHT22;12727;49.934;8.656;2024-02-23T05:06:04;4.80;99.90
24560;DHT22;12727;49.934;8.656;2024-02-23T05:08:30;4.80;99.90
24560;DHT22;12727;49.934;8.656;2024-02-23T05:10:56;4.80;99.90
24560;DHT22;12727;49.934;8.656;2024-02-23T05:13:22;4.80;99.90
24560;DHT22;12727;49.934;8.656;2024-02-23T05:15:48;4.80;99.90
24560;DHT22;12727;49.934;8.656;2024-02-23T05:18:13;4.80;99.90
24560;DHT22;12727;49.934;8.656;2024-02-23T05:20:39;4.80;99.90
24560;DHT22;12727;49.934;8.656;2024-02-23T05:23:04;4.80;99.90
24560;DHT22;12727;49.934;8.656;2024-02-23T05:25:30;4.80;99.90
24560;DHT22;12727;49.934;8.656;2024-02-23T05:27:56;4.70;99.90
24560;DHT22;12727;49.934;8.656;2024-02-23T05:30:21;4.70;99.90
24560;DHT22;12727;49.934;8.656;2024-02-23T05:32:47;4.70;99.90
24560;DHT22;12727;49.934;8.656;2024-02-23T05:35:13;4.70;99.90
24560;DHT22;12727;49.934;8.656;2024-02-23T05:37:41;4.70;99.90
24560;DHT22;12727;49.934;8.656;2024-02-23T05:40:07;4.70;99.90
24560;DHT22;12727;49.934;8.656;2024-02-23T05:42:38;4.70;99.90
24560;DHT22;12727;49.934;8.656;2024-02-23T05:45:04;4.70;99.90
24560;DHT22;12727;49.934;8.656;2024-02-23T05:47:33;4.80;99.90
24560;DHT22;12727;49.934;8.656;2024-02-23T05:49:59;4.80;99.90
24560;DHT22;12727;49.934;8.656;2024-02-23T05:52:25;4.80;99.90
24560;DHT22;12727;49.934;8.656;2024-02-23T05:54:50;4.90;99.90
24560;DHT22;12727;49.934;8.656;2024-02-23T05:57:17;4.90;99.90
24560;DHT22;12727;49.934;8.656;2024-02-23T05:59:42;5.00;99.90
24560;DHT22;12727;49.934;8.656;2024-02-23T06:02:08;5.00;99.90
24560;DHT22;12727;49.934;8.656;2024-02-23T06:04:33;5.00;99.90
24560;DHT22;12727;49.934;8.656;2024-02-23T06:06:59;5.00;99.90
24560;DHT22;12727;49.934;8.656;2024-02-23T06:09:25;5.20;99.90
24560;DHT22;12727;49.934;8.656;2024-02-23T06:11:50;5.20;99.90
24560;DHT22;12727;49.934;8.656;2024-02-23T06:14:16;5.20;99.90
24560;DHT22;12727;49.934;8.656;2024-02-23T06:16:41;5.30;99.90
24560;DHT22;12727;49.934;8.656;2024-02-23T06:19:07;5.30;99.90
24560;DHT22;12727;49.934;8.656;2024-02-23T06:21:33;5.40;99.90
24560;DHT22;12727;49.934;8.656;2024-02-23T06:23:59;5.50;99.90
24560;DHT22;12727;49.934;8.656;2024-02-23T06:26:24;5.50;99.90
24560;DHT22;12727;49.934;8.656;2024-02-23T06:28:50;5.60;99.90
24560;DHT22;12727;49.934;8.656;2024-02-23T06:31:15;5.60;99.90
24560;DHT22;12727;49.934;8.656;2024-02-23T06:33:41;5.70;99.90
24560;DHT22;12727;49.934;8.656;2024-02-23T06:36:07;5.70;99.90
24560;DHT22;12727;49.934;8.656;2024-02-23T06:38:33;5.80;99.90
24560;DHT22;12727;49.934;8.656;2024-02-23T06:40:59;5.80;99.90
24560;DHT22;12727;49.934;8.656;2024-02-23T06:43:24;5.80;99.90
24560;DHT22;12727;49.934;8.656;2024-02-23T06:45:50;5.90;99.90
24560;DHT22;12727;49.934;8.656;2024-02-23T06:48:16;6.00;99.90
24560;DHT22;12727;49.934;8.656;2024-02-23T06:50:42;6.00;99.90
24560;DHT22;12727;49.934;8.656;2024-02-23T06:53:07;6.10;99.90
24560;DHT22;12727;49.934;8.656;2024-02-23T06:55:34;6.00;99.90
24560;DHT22;12727;49.934;8.656;2024-02-23T06:58:00;6.00;99.90
24560;DHT22;12727;49.934;8.656;2024-02-23T07:00:26;6.00;99.90
24560;DHT22;12727;49.934;8.656;2024-02-23T07:02:51;5.90;99.90
24560;DHT22;12727;49.934;8.656;2024-02-23T07:05:17;6.00;99.90
24560;DHT22;12727;49.934;8.656;2024-02-23T07:07:43;5.90;99.90
24560;DHT22;12727;49.934;8.656;2024-02-23T07:10:09;5.90;99.90
24560;DHT22;12727;49.934;8.656;2024-02-23T07:12:35;6.10;99.90
24560;DHT22;12727;49.934;8.656;2024-02-23T07:15:01;6.30;99.90
24560;DHT22;12727;49.934;8.656;2024-02-23T07:17:27;6.50;99.90
24560;DHT22;12727;49.934;8.656;2024-02-23T07:19:53;6.70;99.90
24560;DHT22;12727;49.934;8.656;2024-02-23T07:22:19;6.90;99.90
24560;DHT22;12727;49.934;8.656;2024-02-23T07:24:45;7.00;99.90
24560;DHT22;12727;49.934;8.656;2024-02-23T07:27:11;7.40;99.90
24560;DHT22;12727;49.934;8.656;2024-02-23T07:29:36;7.30;99.90
24560;DHT22;12727;49.934;8.656;2024-02-23T07:32:03;7.20;99.90
24560;DHT22;12727;49.934;8.656;2024-02-23T07:34:30;7.10;99.90
24560;DHT22;12727;49.934;8.656;2024-02-23T07:36:56;6.70;99.90
24560;DHT22;12727;49.934;8.656;2024-02-23T07:39:21;6.60;99.90
24560;DHT22;12727;49.934;8.656;2024-02-23T07:41:47;6.30;99.90
24560;DHT22;12727;49.934;8.656;2024-02-23T07:44:13;6.30;99.90
24560;DHT22;12727;49.934;8.656;2024-02-23T07:46:39;6.60;99.90
24560;DHT22;12727;49.934;8.656;2024-02-23T07:49:05;6.90;99.90
24560;DHT22;12727;49.934;8.656;2024-02-23T07:51:35;6.80;99.90
24560;DHT22;12727;49.934;8.656;2024-02-23T07:54:00;6.70;99.90
24560;DHT22;12727;49.934;8.656;2024-02-23T07:56:26;6.70;99.90
24560;DHT22;12727;49.934;8.656;2024-02-23T07:58:51;7.00;99.90
24560;DHT22;12727;49.934;8.656;2024-02-23T08:01:17;7.60;99.90
24560;DHT22;12727;49.934;8.656;2024-02-23T08:03:43;8.10;99.90
24560;DHT22;12727;49.934;8.656;2024-02-23T08:06:08;8.70;99.90
24560;DHT22;12727;49.934;8.656;2024-02-23T08:08:35;9.50;99.90
24560;DHT22;12727;49.934;8.656;2024-02-23T08:11:04;10.10;99.90
24560;DHT22;12727;49.934;8.656;2024-02-23T08:13:29;9.80;99.90
24560;DHT22;12727;49.934;8.656;2024-02-23T08:15:56;9.30;99.90
24560;DHT22;12727;49.934;8.656;2024-02-23T08:18:22;8.70;99.90
24560;DHT22;12727;49.934;8.656;2024-02-23T08:20:48;8.40;99.90
24560;DHT22;12727;49.934;8.656;2024-02-23T08:23:14;8.00;99.90
24560;DHT22;12727;49.934;8.656;2024-02-23T08:25:39;7.90;99.90
24560;DHT22;12727;49.934;8.656;2024-02-23T08:28:05;7.70;99.90
24560;DHT22;12727;49.934;8.656;2024-02-23T08:30:31;7.50;99.90
24560;DHT22;12727;49.934;8.656;2024-02-23T08:32:57;7.40;99.90
24560;DHT22;12727;49.934;8.656;2024-02-23T08:35:22;7.30;99.90
24560;DHT22;12727;49.934;8.656;2024-02-23T08:37:48;7.20;99.90
24560;DHT22;12727;49.934;8.656;2024-02-23T08:40:13;7.20;99.90
24560;DHT22;12727;49.934;8.656;2024-02-23T08:42:39;7.30;99.90
24560;DHT22;12727;49.934;8.656;2024-02-23T08:45:05;7.20;99.90
24560;DHT22;12727;49.934;8.656;2024-02-23T08:47:31;7.20;99.90
24560;DHT22;12727;49.934;8.656;2024-02-23T08:50:01;7.20;99.90
24560;DHT22;12727;49.934;8.656;2024-02-23T08:52:27;7.10;99.90
24560;DHT22;12727;49.934;8.656;2024-02-23T08:54:52;7.10;99.90
24560;DHT22;12727;49.934;8.656;2024-02-23T08:57:18;7.10;99.90
24560;DHT22;12727;49.934;8.656;2024-02-23T08:59:48;7.20;99.90
24560;DHT22;12727;49.934;8.656;2024-02-23T09:02:14;7.20;99.90
24560;DHT22;12727;49.934;8.656;2024-02-23T09:04:39;7.30;99.90
24560;DHT22;12727;49.934;8.656;2024-02-23T09:07:05;7.30;99.90
24560;DHT22;12727;49.934;8.656;2024-02-23T09:09:31;7.30;99.90
24560;DHT22;12727;49.934;8.656;2024-02-23T09:11:57;7.40;99.90
24560;DHT22;12727;49.934;8.656;2024-02-23T09:14:29;7.40;99.90
24560;DHT22;12727;49.934;8.656;2024-02-23T09:16:55;7.50;99.90
24560;DHT22;12727;49.934;8.656;2024-02-23T09:19:20;7.50;99.90
24560;DHT22;12727;49.934;8.656;2024-02-23T09:21:46;7.60;99.90
24560;DHT22;12727;49.934;8.656;2024-02-23T09:24:12;7.60;99.90
24560;DHT22;12727;49.934;8.656;2024-02-23T09:26:38;7.60;99.90
24560;DHT22;12727;49.934;8.656;2024-02-23T09:29:04;7.60;99.90
24560;DHT22;12727;49.934;8.656;2024-02-23T09:31:30;7.60;99.90
24560;DHT22;12727;49.934;8.656;2024-02-23T09:33:57;7.70;99.90
24560;DHT22;12727;49.934;8.656;2024-02-23T09:36:23;7.80;99.90
24560;DHT22;12727;49.934;8.656;2024-02-23T09:38:48;7.90;99.90
24560;DHT22;12727;49.934;8.656;2024-02-23T09:41:20;7.90;99.90
24560;DHT22;12727;49.934;8.656;2024-02-23T09:43:46;7.90;99.90
24560;DHT22;12727;49.934;8.656;2024-02-23T09:46:13;7.90;99.90
24560;DHT22;12727;49.934;8.656;2024-02-23T09:48:42;8.10;99.90
24560;DHT22;12727;49.934;8.656;2024-02-23T09:51:10;8.40;99.90
24560;DHT22;12727;49.934;8.656;2024-02-23T09:53:37;8.70;99.90
24560;DHT22;12727;49.934;8.656;2024-02-23T09:56:04;8.80;99.90
24560;DHT22;12727;49.934;8.656;2024-02-23T09:58:33;9.30;99.90
24560;DHT22;12727;49.934;8.656;2024-02-23T10:01:02;9.50;99.90
24560;DHT22;12727;49.934;8.656;2024-02-23T10:03:28;9.20;99.90
24560;DHT22;12727;49.934;8.656;2024-02-23T10:05:56;9.00;99.90
24560;DHT22;12727;49.934;8.656;2024-02-23T10:08:22;8.90;99.90
24560;DHT22;12727;49.934;8.656;2024-02-23T10:10:47;8.80;99.90
24560;DHT22;12727;49.934;8.656;2024-02-23T10:13:18;8.70;99.90
24560;DHT22;12727;49.934;8.656;2024-02-23T10:15:46;8.60;99.90
24560;DHT22;12727;49.934;8.656;2024-02-23T10:18:12;8.70;99.90
24560;DHT22;12727;49.934;8.656;2024-02-23T10:20:38;8.70;99.90
24560;DHT22;12727;49.934;8.656;2024-02-23T10:23:04;8.70;99.90
24560;DHT22;12727;49.934;8.656;2024-02-23T10:25:30;8.70;99.90
24560;DHT22;12727;49.934;8.656;2024-02-23T10:27:58;8.50;99.90
24560;DHT22;12727;49.934;8.656;2024-02-23T10:30:26;8.30;99.90
24560;DHT22;12727;49.934;8.656;2024-02-23T10:32:55;8.30;99.90
24560;DHT22;12727;49.934;8.656;2024-02-23T10:35:22;8.40;99.90
24560;DHT22;12727;49.934;8.656;2024-02-23T10:37:49;8.30;99.90
24560;DHT22;12727;49.934;8.656;2024-02-23T10:40:19;8.20;99.90
24560;DHT22;12727;49.934;8.656;2024-02-23T10:42:46;8.20;99.90
24560;DHT22;12727;49.934;8.656;2024-02-23T10:45:16;8.30;99.90
24560;DHT22;12727;49.934;8.656;2024-02-23T10:47:42;8.40;99.90
24560;DHT22;12727;49.934;8.656;2024-02-23T10:50:08;8.60;99.90
24560;DHT22;12727;49.934;8.656;2024-02-23T10:52:35;9.10;99.90
24560;DHT22;12727;49.934;8.656;2024-02-23T10:55:01;9.80;99.90
24560;DHT22;12727;49.934;8.656;2024-02-23T10:57:31;10.10;99.90
24560;DHT22;12727;49.934;8.656;2024-02-23T10:59:58;9.90;99.90
24560;DHT22;12727;49.934;8.656;2024-02-23T11:02:25;9.80;99.90
24560;DHT22;12727;49.934;8.656;2024-02-23T11:04:55;9.60;99.90
24560;DHT22;12727;49.934;8.656;2024-02-23T11:07:22;9.60;99.90
24560;DHT22;12727;49.934;8.656;2024-02-23T11:10:00;9.90;99.90
24560;DHT22;12727;49.934;8.656;2024-02-23T11:12:28;10.50;99.90
24560;DHT22;12727;49.934;8.656;2024-02-23T11:14:58;10.70;99.90
24560;DHT22;12727;49.934;8.656;2024-02-23T11:17:27;10.40;99.90
24560;DHT22;12727;49.934;8.656;2024-02-23T11:19:54;9.90;99.90
24560;DHT22;12727;49.934;8.656;2024-02-23T11:22:27;9.50;99.90
24560;DHT22;12727;49.934;8.656;2024-02-23T11:25:08;9.30;99.90
24560;DHT22;12727;49.934;8.656;2024-02-23T11:27:36;9.10;99.90
24560;DHT22;12727;49.934;8.656;2024-02-23T11:30:07;8.90;99.90
24560;DHT22;12727;49.934;8.656;2024-02-23T11:32:59;8.80;99.90
24560;DHT22;12727;49.934;8.656;2024-02-23T11:35:25;8.60;99.90
24560;DHT22;12727;49.934;8.656;2024-02-23T11:37:54;8.40;99.90
24560;DHT22;12727;49.934;8.656;2024-02-23T11:40:29;8.50;99.90
24560;DHT22;12727;49.934;8.656;2024-02-23T11:42:55;8.50;99.90
24560;DHT22;12727;49.934;8.656;2024-02-23T11:45:21;8.60;99.90
24560;DHT22;12727;49.934;8.656;2024-02-23T11:47:47;8.80;99.90
24560;DHT22;12727;49.934;8.656;2024-02-23T11:50:13;8.90;99.90
24560;DHT22;12727;49.934;8.656;2024-02-23T11:52:40;8.80;99.90
24560;DHT22;12727;49.934;8.656;2024-02-23T11:55:07;8.80;99.90
24560;DHT22;12727;49.934;8.656;2024-02-23T11:57:34;8.70;99.90
24560;DHT22;12727;49.934;8.656;2024-02-23T12:00:04;8.60;99.90
24560;DHT22;12727;49.934;8.656;2024-02-23T12:02:35;8.50;99.90
24560;DHT22;12727;49.934;8.656;2024-02-23T12:05:00;8.40;99.90
24560;DHT22;12727;49.934;8.656;2024-02-23T12:07:27;8.30;99.90
24560;DHT22;12727;49.934;8.656;2024-02-23T12:09:54;8.30;99.90
24560;DHT22;12727;49.934;8.656;2024-02-23T12:12:20;8.20;99.90
24560;DHT22;12727;49.934;8.656;2024-02-23T12:14:46;8.20;99.90
24560;DHT22;12727;49.934;8.656;2024-02-23T12:17:12;8.30;99.90
24560;DHT22;12727;49.934;8.656;2024-02-23T12:19:41;8.30;99.90
24560;DHT22;12727;49.934;8.656;2024-02-23T12:22:07;8.10;99.90
24560;DHT22;12727;49.934;8.656;2024-02-23T12:24:34;8.00;99.90
24560;DHT22;12727;49.934;8.656;2024-02-23T12:27:00;7.90;99.90
24560;DHT22;12727;49.934;8.656;2024-02-23T12:29:25;7.70;99.90
24560;DHT22;12727;49.934;8.656;2024-02-23T12:32:05;7.60;99.90
24560;DHT22;12727;49.934;8.656;2024-02-23T12:34:31;7.70;99.90
24560;DHT22;12727;49.934;8.656;2024-02-23T12:36:57;7.80;99.90
24560;DHT22;12727;49.934;8.656;2024-02-23T12:39:22;7.90;99.90
24560;DHT22;12727;49.934;8.656;2024-02-23T12:41:49;7.90;99.90
24560;DHT22;12727;49.934;8.656;2024-02-23T12:44:16;8.10;99.90
24560;DHT22;12727;49.934;8.656;2024-02-23T12:46:41;8.30;99.90
24560;DHT22;12727;49.934;8.656;2024-02-23T12:49:07;8.50;99.90
24560;DHT22;12727;49.934;8.656;2024-02-23T12:51:32;8.40;99.90
24560;DHT22;12727;49.934;8.656;2024-02-23T12:54:00;8.30;99.90
24560;DHT22;12727;49.934;8.656;2024-02-23T12:56:25;8.40;99.90
24560;DHT22;12727;49.934;8.656;2024-02-23T12:58:51;8.40;99.90
24560;DHT22;12727;49.934;8.656;2024-02-23T13:01:19;8.60;99.90
24560;DHT22;12727;49.934;8.656;2024-02-23T13:03:44;8.80;99.90
24560;DHT22;12727;49.934;8.656;2024-02-23T13:06:10;8.90;99.90
24560;DHT22;12727;49.934;8.656;2024-02-23T13:08:36;9.00;99.90
24560;DHT22;12727;49.934;8.656;2024-02-23T13:11:01;9.00;99.90
24560;DHT22;12727;49.934;8.656;2024-02-23T13:13:27;8.90;99.90
24560;DHT22;12727;49.934;8.656;2024-02-23T13:15:54;9.10;99.90
24560;DHT22;12727;49.934;8.656;2024-02-23T13:18:19;9.20;99.90
24560;DHT22;12727;49.934;8.656;2024-02-23T13:20:45;9.40;99.90
24560;DHT22;12727;49.934;8.656;2024-02-23T13:23:11;9.60;99.90
24560;DHT22;12727;49.934;8.656;2024-02-23T13:25:38;9.60;99.90
24560;DHT22;12727;49.934;8.656;2024-02-23T13:28:04;9.60;99.90
24560;DHT22;12727;49.934;8.656;2024-02-23T13:30:30;9.60;99.90
24560;DHT22;12727;49.934;8.656;2024-02-23T13:32:56;9.60;99.90
24560;DHT22;12727;49.934;8.656;2024-02-23T13:35:22;9.50;99.90
24560;DHT22;12727;49.934;8.656;2024-02-23T13:37:47;9.70;99.90
24560;DHT22;12727;49.934;8.656;2024-02-23T13:40:13;9.90;99.90
24560;DHT22;12727;49.934;8.656;2024-02-23T13:42:39;10.00;99.90
24560;DHT22;12727;49.934;8.656;2024-02-23T13:45:06;9.90;99.90
24560;DHT22;12727;49.934;8.656;2024-02-23T13:47:32;9.70;99.90
24560;DHT22;12727;49.934;8.656;2024-02-23T13:49:58;9.60;99.90
24560;DHT22;12727;49.934;8.656;2024-02-23T13:52:23;9.40;99.90
24560;DHT22;12727;49.934;8.656;2024-02-23T13:54:49;9.30;99.90
24560;DHT22;12727;49.934;8.656;2024-02-23T13:57:15;9.20;99.90
24560;DHT22;12727;49.934;8.656;2024-02-23T13:59:40;9.10;99.90
24560;DHT22;12727;49.934;8.656;2024-02-23T14:02:06;9.10;99.90
24560;DHT22;12727;49.934;8.656;2024-02-23T14:04:31;9.10;99.90
24560;DHT22;12727;49.934;8.656;2024-02-23T14:06:57;9.10;99.90
24560;DHT22;12727;49.934;8.656;2024-02-23T14:09:23;9.10;99.90
24560;DHT22;12727;49.934;8.656;2024-02-23T14:11:48;9.20;99.90
24560;DHT22;12727;49.934;8.656;2024-02-23T14:14:14;9.30;99.90
24560;DHT22;12727;49.934;8.656;2024-02-23T14:16:40;9.30;99.90
24560;DHT22;12727;49.934;8.656;2024-02-23T14:19:05;9.30;99.90
24560;DHT22;12727;49.934;8.656;2024-02-23T14:21:31;9.10;99.90
24560;DHT22;12727;49.934;8.656;2024-02-23T14:23:57;8.90;99.90
24560;DHT22;12727;49.934;8.656;2024-02-23T14:26:22;8.90;99.90
24560;DHT22;12727;49.934;8.656;2024-02-23T14:28:48;8.70;99.90
24560;DHT22;12727;49.934;8.656;2024-02-23T14:31:14;8.70;99.90
24560;DHT22;12727;49.934;8.656;2024-02-23T14:33:40;8.80;99.90
24560;DHT22;12727;49.934;8.656;2024-02-23T14:36:06;8.80;99.90
24560;DHT22;12727;49.934;8.656;2024-02-23T14:38:32;8.90;99.90
24560;DHT22;12727;49.934;8.656;2024-02-23T14:40:58;9.00;99.90
24560;DHT22;12727;49.934;8.656;2024-02-23T14:43:24;9.10;99.90
24560;DHT22;12727;49.934;8.656;2024-02-23T14:45:50;9.00;99.90
24560;DHT22;12727;49.934;8.656;2024-02-23T14:48:18;8.90;99.90
24560;DHT22;12727;49.934;8.656;2024-02-23T14:50:43;8.80;99.90
24560;DHT22;12727;49.934;8.656;2024-02-23T14:53:09;8.60;99.90
24560;DHT22;12727;49.934;8.656;2024-02-23T14:55:36;8.40;99.90
24560;DHT22;12727;49.934;8.656;2024-02-23T14:58:02;8.20;99.90
24560;DHT22;12727;49.934;8.656;2024-02-23T15:00:28;8.20;99.90
24560;DHT22;12727;49.934;8.656;2024-02-23T15:02:55;8.20;99.90
24560;DHT22;12727;49.934;8.656;2024-02-23T15:05:22;8.30;99.90
24560;DHT22;12727;49.934;8.656;2024-02-23T15:07:48;8.50;99.90
24560;DHT22;12727;49.934;8.656;2024-02-23T15:10:14;8.50;99.90
24560;DHT22;12727;49.934;8.656;2024-02-23T15:12:40;8.70;99.90
24560;DHT22;12727;49.934;8.656;2024-02-23T15:15:06;8.80;99.90
24560;DHT22;12727;49.934;8.656;2024-02-23T15:17:32;8.80;99.90
24560;DHT22;12727;49.934;8.656;2024-02-23T15:19:58;8.80;99.90
24560;DHT22;12727;49.934;8.656;2024-02-23T15:22:24;8.80;99.90
24560;DHT22;12727;49.934;8.656;2024-02-23T15:24:51;8.70;99.90
24560;DHT22;12727;49.934;8.656;2024-02-23T15:27:17;8.70;99.90
24560;DHT22;12727;49.934;8.656;2024-02-23T15:29:43;8.70;99.90
24560;DHT22;12727;49.934;8.656;2024-02-23T15:32:09;8.70;99.90
24560;DHT22;12727;49.934;8.656;2024-02-23T15:34:36;8.60;99.90
24560;DHT22;12727;49.934;8.656;2024-02-23T15:37:02;8.70;99.90
24560;DHT22;12727;49.934;8.656;2024-02-23T15:39:28;8.60;99.90